Time;durP1;ratioP1;P1;durP2;ratioP2;P2;SDS_P1;SDS_P2;PMS_P1;PMS_P2;Temp;Humidity;BMP_temperature;BMP_pressure;BME280_temperature;BME280_humidity;BME280_pressure;Samples;Min_cycle;Max_cycle;Signal;HPM_P1;HPM_P2
2022/04/01 00:00:11;;;;;;;;;;;;;;;13.14;63.44;98693.53;4973168;28;827;-56
2022/04/01 00:02:38;;;;;;;;;;;;;;;13.12;63.56;98695.22;4972820;28;1890;-56
2022/04/01 00:05:06;;;;;;;;;;;;;;;13.15;63.50;98703.44;4973170;28;815;-56
2022/04/01 00:07:33;;;;;;;;;;;;;;;13.15;63.52;98714.53;4972887;28;871;-56
2022/04/01 00:10:00;;;;;;;;;;;;;;;13.00;64.11;98725.31;4972822;28;878;-56
2022/04/01 00:12:27;;;;;;;;;;;;;;;12.81;64.71;98738.16;4972708;28;883;-55
2022/04/01 00:14:54;;;;;;;;;;;;;;;12.65;65.40;98727.19;4972788;28;1122;-55
2022/04/01 00:17:21;;;;;;;;;;;;;;;12.52;65.60;98701.44;4973105;28;816;-54
2022/04/01 00:19:48;;;;;;;;;;;;;;;12.37;66.42;98682.47;4972756;28;878;-55
2022/04/01 00:22:15;;;;;;;;;;;;;;;12.34;67.04;98658.44;4972688;28;1962;-56
2022/04/01 00:24:41;;;;;;;;;;;;;;;12.44;66.89;98667.66;4972740;28;1421;-56
2022/04/01 00:27:08;;;;;;;;;;;;;;;12.55;66.76;98686.72;4972609;28;907;-56
2022/04/01 00:29:37;;;;;;;;;;;;;;;12.53;66.92;98678.06;4972531;28;871;-55
2022/04/01 00:32:03;;;;;;;;;;;;;;;12.41;67.18;98662.97;4972650;28;929;-55
2022/04/01 00:34:32;;;;;;;;;;;;;;;12.36;67.13;98680.16;4972658;28;870;-56
2022/04/01 00:36:59;;;;;;;;;;;;;;;12.31;67.34;98689.00;4972610;28;804;-55
2022/04/01 00:39:29;;;;;;;;;;;;;;;12.29;68.01;98683.94;4972409;28;1584;-56
2022/04/01 00:41:58;;;;;;;;;;;;;;;12.38;67.80;98670.19;4972689;28;1975;-55
2022/04/01 00:44:26;;;;;;;;;;;;;;;12.42;67.37;98676.41;4972494;28;851;-55
2022/04/01 00:46:53;;;;;;;;;;;;;;;12.37;67.66;98676.16;4972493;28;820;-56
2022/04/01 00:49:21;;;;;;;;;;;;;;;12.26;67.65;98668.94;4972479;28;784;-55
2022/04/01 00:51:49;;;;;;;;;;;;;;;12.13;68.16;98690.31;4972967;28;855;-56
2022/04/01 00:54:16;;;;;;;;;;;;;;;12.11;68.58;98701.06;4972662;28;899;-56
2022/04/01 00:56:43;;;;;;;;;;;;;;;12.10;68.72;98688.44;4973479;28;775;-56
2022/04/01 00:59:10;;;;;;;;;;;;;;;12.19;68.93;98669.16;4972584;28;816;-56
2022/04/01 01:01:38;;;;;;;;;;;;;;;12.27;68.52;98655.91;4975230;28;785;-56
2022/04/01 01:04:04;;;;;;;;;;;;;;;12.41;68.04;98638.03;4958842;28;1953;-56
2022/04/01 01:06:31;;;;;;;;;;;;;;;12.48;67.64;98637.03;4976452;28;879;-55
2022/04/01 01:08:58;;;;;;;;;;;;;;;12.39;67.69;98638.47;4958875;28;935;-56
2022/04/01 01:11:25;;;;;;;;;;;;;;;12.30;67.97;98629.28;4976371;28;844;-56
2022/04/01 01:13:52;;;;;;;;;;;;;;;12.19;68.18;98622.06;4976056;28;864;-56
2022/04/01 01:16:19;;;;;;;;;;;;;;;12.04;68.84;98616.19;4975941;28;847;-56
2022/04/01 01:19:07;;;;;;;;;;;;;;;11.87;69.23;98592.56;4975969;28;959;-56
2022/04/01 01:21:34;;;;;;;;;;;;;;;11.68;69.78;98560.31;4975847;28;1782;-55
2022/04/01 01:24:03;;;;;;;;;;;;;;;11.61;69.93;98545.44;4976289;28;1888;-55
2022/04/01 01:26:30;;;;;;;;;;;;;;;11.63;70.38;98529.19;4975296;28;1251;-56
2022/04/01 01:28:57;;;;;;;;;;;;;;;11.65;69.82;98521.22;4975688;28;847;-56
2022/04/01 01:31:25;;;;;;;;;;;;;;;11.65;70.56;98512.91;4975538;28;867;-55
2022/04/01 01:33:53;;;;;;;;;;;;;;;11.64;70.23;98516.88;4975501;28;861;-56
2022/04/01 01:36:21;;;;;;;;;;;;;;;11.67;70.54;98515.25;4975414;28;947;-56
2022/04/01 01:38:48;;;;;;;;;;;;;;;11.63;70.63;98495.97;4975346;28;827;-56
2022/04/01 01:41:15;;;;;;;;;;;;;;;11.59;70.81;98506.38;4958105;28;884;-56
2022/04/01 01:43:42;;;;;;;;;;;;;;;11.56;70.72;98490.63;4975315;28;1927;-56
2022/04/01 01:46:08;;;;;;;;;;;;;;;11.49;70.84;98496.38;4975251;28;947;-55
2022/04/01 01:48:35;;;;;;;;;;;;;;;11.40;70.88;98505.34;4975101;28;942;-55
2022/04/01 01:56:32;;;;;;;;;;;;;;;11.26;71.79;98532.63;4975477;28;686;-56
2022/04/01 01:58:59;;;;;;;;;;;;;;;11.27;71.42;98512.06;4975217;28;947;-56
2022/04/01 02:01:25;;;;;;;;;;;;;;;11.30;71.71;98525.00;4974968;28;868;-56
2022/04/01 02:03:52;;;;;;;;;;;;;;;11.31;71.74;98540.38;4974946;28;1960;-56
2022/04/01 02:06:22;;;;;;;;;;;;;;;11.41;71.79;98533.78;4974779;28;922;-56
2022/04/01 02:08:54;;;;;;;;;;;;;;;11.46;71.78;98530.47;4975382;28;895;-56
2022/04/01 02:11:21;;;;;;;;;;;;;;;11.40;71.66;98540.53;4974306;28;954;-56
2022/04/01 02:13:48;;;;;;;;;;;;;;;11.22;71.96;98544.59;4974755;28;920;-56
2022/04/01 02:16:15;;;;;;;;;;;;;;;11.12;72.47;98537.34;4974657;28;915;-56
2022/04/01 02:18:45;;;;;;;;;;;;;;;10.99;72.95;98528.22;4974693;28;863;-56
2022/04/01 02:21:15;;;;;;;;;;;;;;;10.95;73.32;98508.19;4974716;28;907;-55
2022/04/01 02:23:44;;;;;;;;;;;;;;;10.90;73.21;98517.00;4974478;28;1890;-56
2022/04/01 02:26:12;;;;;;;;;;;;;;;10.83;73.42;98510.47;4974175;28;1397;-56
2022/04/01 02:28:40;;;;;;;;;;;;;;;10.83;73.89;98523.50;4974377;28;874;-56
2022/04/01 02:31:06;;;;;;;;;;;;;;;10.82;73.96;98516.44;4974423;28;841;-55
2022/04/01 02:33:34;;;;;;;;;;;;;;;10.89;74.21;98512.72;4974526;28;913;-56
2022/04/01 02:36:02;;;;;;;;;;;;;;;10.98;74.11;98505.31;4957193;28;888;-56
2022/04/01 02:38:30;;;;;;;;;;;;;;;11.07;74.01;98503.91;4974269;28;799;-56
2022/04/01 02:40:57;;;;;;;;;;;;;;;11.03;73.74;98496.50;4974330;28;800;-56
2022/04/01 02:43:24;;;;;;;;;;;;;;;10.94;74.04;98473.47;4974159;28;1950;-56
2022/04/01 02:45:52;;;;;;;;;;;;;;;10.82;74.10;98448.13;4974285;28;926;-56
2022/04/01 02:48:19;;;;;;;;;;;;;;;10.71;74.23;98455.94;4974052;28;859;-55
2022/04/01 02:50:46;;;;;;;;;;;;;;;10.62;74.73;98475.09;4974114;28;879;-56
2022/04/01 02:53:15;;;;;;;;;;;;;;;10.59;74.73;98500.84;4974253;28;891;-56
2022/04/01 02:55:42;;;;;;;;;;;;;;;10.61;74.68;98520.53;4973875;28;1658;-56
2022/04/01 02:58:09;;;;;;;;;;;;;;;10.63;75.19;98537.47;4974159;28;835;-56
2022/04/01 03:00:37;;;;;;;;;;;;;;;10.69;75.29;98563.34;4974192;28;846;-56
2022/04/01 03:03:06;;;;;;;;;;;;;;;10.76;75.35;98563.16;4974036;28;1890;-56
2022/04/01 03:05:36;;;;;;;;;;;;;;;10.82;75.11;98582.78;4973728;28;923;-56
2022/04/01 03:08:05;;;;;;;;;;;;;;;10.89;75.26;98581.81;4973656;28;928;-55
2022/04/01 03:10:32;;;;;;;;;;;;;;;11.00;74.56;98572.00;4956372;28;771;-56
2022/04/01 03:12:59;;;;;;;;;;;;;;;11.06;74.18;98547.38;4973724;28;902;-56
2022/04/01 03:15:27;;;;;;;;;;;;;;;11.15;73.40;98544.00;4973746;28;866;-55
2022/04/01 03:17:55;;;;;;;;;;;;;;;11.28;72.87;98521.91;4973784;28;928;-55
2022/04/01 03:20:22;;;;;;;;;;;;;;;11.29;72.59;98520.69;4973635;28;886;-56
2022/04/01 03:22:50;;;;;;;;;;;;;;;11.24;72.46;98508.16;4973032;28;1914;-55
2022/04/01 03:25:20;;;;;;;;;;;;;;;11.28;72.55;98514.38;4973006;28;1411;-56
2022/04/01 03:27:49;;;;;;;;;;;;;;;11.27;72.10;98482.41;4973400;28;907;-55
2022/04/01 03:30:17;;;;;;;;;;;;;;;11.35;71.55;98469.94;4973455;28;866;-56
2022/04/01 03:32:47;;;;;;;;;;;;;;;11.34;71.20;98490.50;4973305;28;811;-56
2022/04/01 03:35:16;;;;;;;;;;;;;;;11.32;71.27;98481.09;4973314;28;870;-55
2022/04/01 03:37:45;;;;;;;;;;;;;;;11.27;71.49;98463.06;4973408;28;872;-56
2022/04/01 03:40:14;;;;;;;;;;;;;;;11.27;71.14;98459.53;4973183;28;879;-56
2022/04/01 03:42:41;;;;;;;;;;;;;;;11.11;71.43;98455.59;4973004;28;1918;-56
2022/04/01 03:45:08;;;;;;;;;;;;;;;11.07;71.42;98484.56;4973148;28;823;-56
2022/04/01 03:47:58;;;;;;;;;;;;;;;11.01;71.44;98503.69;4973165;28;807;-56
2022/04/01 03:50:29;;;;;;;;;;;;;;;10.83;71.70;98504.16;4973057;28;1677;-56
2022/04/01 03:53:05;;;;;;;;;;;;;;;10.59;72.63;98495.31;4973111;28;803;-55
2022/04/01 03:55:33;;;;;;;;;;;;;;;10.40;73.37;98459.09;4973046;28;787;-55
2022/04/01 03:58:09;;;;;;;;;;;;;;;10.31;73.78;98460.94;4973313;28;855;-56
2022/04/01 04:00:36;;;;;;;;;;;;;;;10.26;74.12;98481.50;4972866;28;856;-55
2022/04/01 04:03:08;;;;;;;;;;;;;;;10.18;74.05;98562.97;4972942;28;1894;-55
2022/04/01 04:05:36;;;;;;;;;;;;;;;10.17;74.38;98570.47;4973204;28;788;-55
2022/04/01 04:08:02;;;;;;;;;;;;;;;10.19;74.34;98579.09;4972689;28;893;-56
2022/04/01 04:10:30;;;;;;;;;;;;;;;10.13;74.37;98578.03;4972938;28;835;-55
2022/04/01 04:12:57;;;;;;;;;;;;;;;10.07;74.85;98545.88;4972978;28;847;-55
2022/04/01 04:15:29;;;;;;;;;;;;;;;10.14;74.55;98523.63;4955574;28;894;-56
2022/04/01 04:17:59;;;;;;;;;;;;;;;10.12;74.53;98501.19;4972757;28;839;-56
2022/04/01 04:20:34;;;;;;;;;;;;;;;10.18;74.23;98496.72;4972777;28;923;-55
2022/04/01 04:23:10;;;;;;;;;;;;;;;10.36;73.40;98494.31;4972654;28;1894;-56
2022/04/01 04:25:37;;;;;;;;;;;;;;;10.47;73.14;98487.72;4972575;28;1228;-55
2022/04/01 04:28:16;;;;;;;;;;;;;;;10.54;72.55;98490.31;4972598;28;950;-56
2022/04/01 04:30:55;;;;;;;;;;;;;;;10.63;72.20;98491.25;4972636;28;926;-56
2022/04/01 04:33:23;;;;;;;;;;;;;;;10.70;71.82;98473.69;4972797;28;832;-55
2022/04/01 04:35:51;;;;;;;;;;;;;;;10.92;71.26;98496.00;4975160;28;836;-56
2022/04/01 04:38:20;;;;;;;;;;;;;;;11.21;69.88;98512.59;4976848;28;866;-56
2022/04/01 04:40:47;;;;;;;;;;;;;;;11.43;68.64;98496.16;4976338;28;926;-56
2022/04/01 04:43:18;;;;;;;;;;;;;;;11.53;67.83;98497.06;4976538;28;1974;-55
2022/04/01 04:45:48;;;;;;;;;;;;;;;11.50;68.32;98500.72;4976334;28;962;-56
2022/04/01 04:48:16;;;;;;;;;;;;;;;11.44;68.40;98499.72;4976265;28;916;-56
2022/04/01 04:50:47;;;;;;;;;;;;;;;11.54;67.71;98503.38;4976212;28;959;-56
2022/04/01 04:53:13;;;;;;;;;;;;;;;11.74;67.07;98508.72;4976148;28;871;-56
2022/04/01 04:55:40;;;;;;;;;;;;;;;11.91;66.64;98503.88;4976136;28;925;-55
2022/04/01 04:58:09;;;;;;;;;;;;;;;12.01;66.46;98503.56;4976295;28;815;-55
2022/04/01 05:00:37;;;;;;;;;;;;;;;12.09;66.52;98490.22;4976137;28;905;-56
2022/04/01 05:03:23;;;;;;;;;;;;;;;12.22;65.90;98512.38;4976036;28;1890;-56
2022/04/01 05:05:51;;;;;;;;;;;;;;;12.32;66.11;98502.94;4975992;28;819;-56
2022/04/01 05:08:18;;;;;;;;;;;;;;;12.41;65.49;98514.13;4975947;28;906;-56
2022/04/01 05:10:44;;;;;;;;;;;;;;;12.52;65.16;98535.16;4976013;28;862;-56
2022/04/01 05:13:14;;;;;;;;;;;;;;;12.68;64.88;98507.31;4975849;28;1058;-56
2022/04/01 05:15:42;;;;;;;;;;;;;;;12.90;64.27;98512.13;4976238;28;1108;-55
2022/04/01 05:18:08;;;;;;;;;;;;;;;13.07;63.22;98513.47;4976178;28;814;-56
2022/04/01 05:20:35;;;;;;;;;;;;;;;13.24;61.92;98534.25;4975780;28;902;-55
2022/04/01 05:23:09;;;;;;;;;;;;;;;13.42;61.29;98527.31;4975716;28;1891;-54
2022/04/01 05:25:54;;;;;;;;;;;;;;;13.61;60.75;98520.66;4975284;28;1309;-56
2022/04/01 05:28:23;;;;;;;;;;;;;;;13.88;60.12;98538.69;4975675;28;803;-56
2022/04/01 05:30:58;;;;;;;;;;;;;;;14.08;60.11;98525.19;4975483;28;946;-56
2022/04/01 05:33:26;;;;;;;;;;;;;;;14.06;59.08;98536.00;4975455;28;835;-56
2022/04/01 05:35:53;;;;;;;;;;;;;;;14.00;59.09;98537.06;4975451;28;864;-56
2022/04/01 05:38:20;;;;;;;;;;;;;;;13.97;59.85;98538.72;4975489;28;839;-56
2022/04/01 05:40:48;;;;;;;;;;;;;;;13.78;60.32;98539.84;4975368;28;902;-56
2022/04/01 05:43:15;;;;;;;;;;;;;;;13.61;60.91;98509.56;4958137;28;1983;-56
2022/04/01 05:45:45;;;;;;;;;;;;;;;13.50;61.07;98516.72;4975199;28;875;-56
2022/04/01 05:48:12;;;;;;;;;;;;;;;13.56;61.36;98510.13;4974621;28;918;-56
2022/04/01 05:50:39;;;;;;;;;;;;;;;13.73;61.13;98487.69;4975564;28;812;-56
2022/04/01 05:53:06;;;;;;;;;;;;;;;13.95;60.56;98490.41;4975341;28;955;-56
2022/04/01 05:55:32;;;;;;;;;;;;;;;13.97;60.26;98487.94;4975174;28;879;-55
2022/04/01 05:58:03;;;;;;;;;;;;;;;13.86;60.68;98482.81;4975055;28;859;-56
2022/04/01 06:00:34;;;;;;;;;;;;;;;13.78;60.72;98484.31;4975127;28;835;-56
2022/04/01 06:03:12;;;;;;;;;;;;;;;13.83;60.36;98473.41;4975036;28;1947;-56
2022/04/01 06:05:41;;;;;;;;;;;;;;;14.06;60.16;98457.41;4974916;28;886;-56
2022/04/01 06:08:44;;;;;;;;;;;;;;;14.52;59.16;98465.84;4974883;28;795;-56
2022/04/01 06:11:11;;;;;;;;;;;;;;;14.85;58.26;98476.38;4924246;28;1118;-56
2022/04/01 06:13:50;;;;;;;;;;;;;;;15.00;57.68;98479.31;4974778;28;936;-56
2022/04/01 06:16:26;;;;;;;;;;;;;;;15.20;57.54;98487.19;4975097;28;824;-56
2022/04/01 06:18:53;;;;;;;;;;;;;;;15.62;56.84;98476.13;4974786;28;787;-56
2022/04/01 06:21:23;;;;;;;;;;;;;;;15.84;56.25;98495.41;4974688;28;816;-56
2022/04/01 06:23:50;;;;;;;;;;;;;;;15.68;56.15;98518.03;4974543;28;1971;-56
2022/04/01 06:26:18;;;;;;;;;;;;;;;15.44;56.84;98513.13;4974304;28;1394;-56
2022/04/01 06:29:11;;;;;;;;;;;;;;;15.34;57.29;98513.59;4974490;28;862;-56
2022/04/01 06:31:44;;;;;;;;;;;;;;;15.54;57.05;98497.19;4970567;28;1626;-56
2022/04/01 06:34:30;;;;;;;;;;;;;;;16.08;55.40;98486.31;4974423;28;811;-56
2022/04/01 06:37:03;;;;;;;;;;;;;;;16.63;53.47;98483.22;4974251;28;1919;-56
2022/04/01 06:39:41;;;;;;;;;;;;;;;16.64;52.87;98454.09;4957322;28;939;-56
2022/04/01 06:42:09;;;;;;;;;;;;;;;16.93;50.70;98466.56;4956885;28;1915;-56
2022/04/01 06:44:35;;;;;;;;;;;;;;;17.52;49.31;98454.69;4974884;28;831;-56
2022/04/01 06:47:02;;;;;;;;;;;;;;;17.61;48.09;98454.56;4974202;28;852;-56
2022/04/01 06:49:29;;;;;;;;;;;;;;;17.84;46.98;98443.78;4974212;28;898;-56
2022/04/01 06:51:56;;;;;;;;;;;;;;;18.37;46.55;98434.34;4974075;28;821;-56
2022/04/01 06:54:23;;;;;;;;;;;;;;;18.54;46.19;98438.13;4974614;28;819;-56
2022/04/01 06:56:50;;;;;;;;;;;;;;;18.47;46.01;98430.13;4973984;28;957;-56
2022/04/01 06:59:17;;;;;;;;;;;;;;;18.47;46.58;98424.53;4973966;28;831;-56
2022/04/01 07:01:44;;;;;;;;;;;;;;;18.82;46.33;98422.91;4974169;28;1118;-56
2022/04/01 07:04:11;;;;;;;;;;;;;;;19.58;44.65;98417.00;4973983;28;1882;-56
2022/04/01 07:06:38;;;;;;;;;;;;;;;19.47;44.04;98409.28;4973830;28;931;-56
2022/04/01 07:09:04;;;;;;;;;;;;;;;18.88;46.10;98413.34;4973832;28;898;-56
2022/04/01 07:11:32;;;;;;;;;;;;;;;18.76;43.61;98409.63;4973765;28;841;-57
2022/04/01 07:13:59;;;;;;;;;;;;;;;19.07;40.76;98441.75;4973626;28;961;-57
2022/04/01 07:16:26;;;;;;;;;;;;;;;19.40;41.20;98434.97;4973883;28;894;-57
2022/04/01 07:18:51;;;;;;;;;;;;;;;19.14;41.33;98438.53;4973496;28;1033;-57
2022/04/01 07:21:18;;;;;;;;;;;;;;;18.88;41.33;98444.13;4973645;28;823;-57
2022/04/01 07:23:45;;;;;;;;;;;;;;;18.25;42.06;98429.88;4973512;28;1887;-57
2022/04/01 07:26:12;;;;;;;;;;;;;;;18.02;42.65;98431.56;4973293;28;1444;-57
2022/04/01 07:28:39;;;;;;;;;;;;;;;18.25;43.13;98447.41;4973483;28;882;-57
2022/04/01 07:33:51;;;;;;;;;;;;;;;19.46;41.67;98432.97;4973317;28;634;-57
2022/04/01 07:36:19;;;;;;;;;;;;;;;19.13;42.02;98422.22;4973292;28;862;-56
2022/04/01 07:38:46;;;;;;;;;;;;;;;18.39;42.17;98409.44;4973347;28;886;-57
2022/04/01 07:41:12;;;;;;;;;;;;;;;18.22;42.39;98402.88;4973171;28;860;-57
2022/04/01 07:43:39;;;;;;;;;;;;;;;18.19;42.68;98404.63;4973174;28;1981;-57
2022/04/01 07:46:06;;;;;;;;;;;;;;;18.01;43.05;98402.06;4973167;28;792;-57
2022/04/01 07:48:32;;;;;;;;;;;;;;;18.20;44.18;98406.16;4973442;28;819;-57
2022/04/01 07:50:59;;;;;;;;;;;;;;;18.88;41.70;98395.75;4973112;28;827;-56
2022/04/01 07:53:26;;;;;;;;;;;;;;;19.94;41.87;98403.53;4973082;28;902;-56
2022/04/01 07:55:53;;;;;;;;;;;;;;;20.05;40.15;98400.78;4973084;28;871;-57
2022/04/01 07:58:19;;;;;;;;;;;;;;;19.41;40.81;98380.44;4972974;28;843;-57
2022/04/01 08:00:45;;;;;;;;;;;;;;;19.52;41.06;98404.97;4972897;28;1232;-57
2022/04/01 08:03:12;;;;;;;;;;;;;;;19.45;39.95;98383.78;4973119;28;1887;-57
2022/04/01 08:05:39;;;;;;;;;;;;;;;19.10;40.30;98384.78;4972895;28;839;-57
2022/04/01 08:08:06;;;;;;;;;;;;;;;18.99;41.38;98409.88;4972978;28;823;-57
2022/04/01 08:10:33;;;;;;;;;;;;;;;19.00;41.44;98405.06;4972584;28;888;-57
2022/04/01 08:13:00;;;;;;;;;;;;;;;18.94;39.92;98400.16;4972658;28;966;-57
2022/04/01 08:15:27;;;;;;;;;;;;;;;18.83;40.90;98394.44;4973134;28;855;-57
2022/04/01 08:17:55;;;;;;;;;;;;;;;19.10;40.06;98398.03;4972749;28;819;-57
2022/04/01 08:20:22;;;;;;;;;;;;;;;19.91;38.75;98398.94;4972701;28;903;-57
2022/04/01 08:22:49;;;;;;;;;;;;;;;20.80;36.89;98386.53;4972782;28;1863;-57
2022/04/01 08:25:16;;;;;;;;;;;;;;;21.33;36.54;98404.47;4972707;28;1206;-57
2022/04/01 08:27:43;;;;;;;;;;;;;;;21.38;37.87;98406.53;4972724;28;923;-57
2022/04/01 08:30:10;;;;;;;;;;;;;;;21.18;36.35;98395.53;4972688;28;973;-57
2022/04/01 08:32:37;;;;;;;;;;;;;;;;;;4972483;28;946;-57
2022/04/01 08:35:05;;;;;;;;;;;;;;;19.81;39.07;98417.22;4972496;28;963;-57
2022/04/01 08:37:32;;;;;;;;;;;;;;;19.54;39.61;98396.84;4972817;28;827;-57
2022/04/01 08:39:58;;;;;;;;;;;;;;;19.40;39.93;98390.13;4972563;28;811;-57
2022/04/01 08:42:24;;;;;;;;;;;;;;;19.57;40.10;98399.44;4972517;28;1982;-57
2022/04/01 08:44:51;;;;;;;;;;;;;;;19.81;40.34;98395.53;4955350;28;887;-57
2022/04/01 08:47:18;;;;;;;;;;;;;;;19.83;38.99;98397.84;4972567;28;835;-57
2022/04/01 08:49:46;;;;;;;;;;;;;;;19.68;39.27;98401.53;4972545;28;826;-57
2022/04/01 08:52:12;;;;;;;;;;;;;;;19.75;39.51;98401.09;4972403;28;958;-57
2022/04/01 08:54:39;;;;;;;;;;;;;;;20.23;38.74;98399.59;4972544;28;816;-57
2022/04/01 08:57:08;;;;;;;;;;;;;;;20.77;37.87;98388.31;4972471;28;886;-57
2022/04/01 08:59:35;;;;;;;;;;;;;;;20.69;37.60;98414.59;4972342;28;931;-57
2022/04/01 09:02:06;;;;;;;;;;;;;;;20.49;37.90;98396.63;4972104;28;1878;-57
2022/04/01 09:04:33;;;;;;;;;;;;;;;19.94;38.17;98387.47;4972421;28;812;-57
2022/04/01 09:07:12;;;;;;;;;;;;;;;19.67;38.93;98382.41;4972321;28;862;-57
2022/04/01 09:09:39;;;;;;;;;;;;;;;19.76;38.91;98388.63;4972657;28;853;-57
2022/04/01 09:12:06;;;;;;;;;;;;;;;20.12;38.55;98403.13;4972219;28;942;-57
2022/04/01 09:14:33;;;;;;;;;;;;;;;21.07;37.92;98385.06;4972214;28;1229;-57
2022/04/01 09:17:00;;;;;;;;;;;;;;;21.17;35.80;98391.22;4972347;28;803;-57
2022/04/01 09:19:31;;;;;;;;;;;;;;;21.02;37.54;98408.31;4972156;28;920;-57
2022/04/01 09:22:14;;;;;;;;;;;;;;;20.44;36.12;98399.41;4973308;28;832;-57
2022/04/01 09:24:51;;;;;;;;;;;;;;;20.14;37.49;98394.19;4975878;28;1004;-57
2022/04/01 09:27:18;;;;;;;;;;;;;;;20.01;37.54;98394.63;4975699;28;795;-57
2022/04/01 09:29:44;;;;;;;;;;;;;;;20.08;38.00;98391.38;4975662;28;883;-57
2022/04/01 09:32:10;;;;;;;;;;;;;;;20.38;37.90;98386.16;4958149;28;1346;-57
2022/04/01 09:34:40;;;;;;;;;;;;;;;20.79;37.24;98380.16;4975501;28;939;-57
2022/04/01 09:37:08;;;;;;;;;;;;;;;20.64;35.96;98365.59;4975433;28;959;-57
2022/04/01 09:39:34;;;;;;;;;;;;;;;20.45;37.98;98370.84;4975431;28;851;-57
2022/04/01 09:42:09;;;;;;;;;;;;;;;20.10;36.98;98349.56;4975437;28;842;-57
2022/04/01 09:44:36;;;;;;;;;;;;;;;19.88;37.93;98357.84;4975412;28;903;-57
2022/04/01 09:47:04;;;;;;;;;;;;;;;19.83;36.31;98353.75;4975547;28;886;-57
2022/04/01 09:49:36;;;;;;;;;;;;;;;19.86;36.83;98357.59;4975306;28;898;-57
2022/04/01 09:52:11;;;;;;;;;;;;;;;19.86;36.67;98324.72;4975206;28;983;-57
2022/04/01 09:54:47;;;;;;;;;;;;;;;19.93;36.93;98343.13;4975194;28;843;-57
2022/04/01 10:25:50;;;;;;;;;;;;;;;22.35;32.91;98301.00;5132572;23;1946;-58
2022/04/01 10:28:17;;;;;;;;;;;;;;;21.91;32.32;98288.66;4974609;28;878;-58
2022/04/01 10:31:13;;;;;;;;;;;;;;;21.69;33.92;98300.72;4974620;28;799;-58
2022/04/01 10:33:40;;;;;;;;;;;;;;;21.77;32.62;98303.78;4953785;28;1733;-58
2022/04/01 10:36:22;;;;;;;;;;;;;;;22.49;31.58;98295.53;4974434;28;830;-57
2022/04/01 10:38:49;;;;;;;;;;;;;;;23.17;29.89;98236.66;4974354;28;859;-58
2022/04/01 10:41:18;;;;;;;;;;;;;;;23.50;30.83;98296.81;4974376;28;861;-57
2022/04/01 10:43:46;;;;;;;;;;;;;;;23.91;29.82;98299.47;4974266;28;1907;-58
2022/04/01 10:46:17;;;;;;;;;;;;;;;23.92;29.39;98300.22;4974285;28;807;-58
2022/04/01 10:52:00;;;;;;;;;;;;;;;23.47;29.22;98289.41;4974258;28;626;-58
2022/04/01 10:54:30;;;;;;;;;;;;;;;23.84;29.08;98263.38;4973958;28;858;-59
2022/04/01 10:57:06;;;;;;;;;;;;;;;23.90;29.36;98306.41;4974432;28;807;-58
2022/04/01 10:59:40;;;;;;;;;;;;;;;23.94;28.18;98289.94;4974213;28;935;-58
2022/04/01 11:02:08;;;;;;;;;;;;;;;23.88;28.90;98294.13;4973804;28;1977;-58
2022/04/01 11:04:39;;;;;;;;;;;;;;;23.87;28.54;98273.59;4973980;28;831;-59
2022/04/01 11:07:11;;;;;;;;;;;;;;;23.81;28.75;98253.16;4974053;28;835;-58
2022/04/01 11:09:46;;;;;;;;;;;;;;;23.84;28.92;98252.88;4973718;28;904;-58
2022/04/01 11:12:16;;;;;;;;;;;;;;;23.78;28.42;98232.41;4973828;28;878;-58
2022/04/01 11:15:28;;;;;;;;;;;;;;;23.77;29.01;98222.44;4973810;28;892;-58
2022/04/01 11:17:59;;;;;;;;;;;;;;;23.92;28.91;98233.28;4970543;28;1648;-58
2022/04/01 11:20:29;;;;;;;;;;;;;;;24.02;28.43;98228.78;4973961;28;882;-57
2022/04/01 11:22:56;;;;;;;;;;;;;;;24.10;29.92;98214.06;4956099;28;2470;-58
2022/04/01 11:25:27;;;;;;;;;;;;;;;24.42;29.61;98191.53;4973334;28;1349;-58
2022/04/01 11:28:01;;;;;;;;;;;;;;;24.37;28.18;98198.03;4973508;28;909;-58
2022/04/01 11:30:29;;;;;;;;;;;;;;;24.39;27.99;98218.03;4973480;28;831;-58
2022/04/01 11:32:59;;;;;;;;;;;;;;;24.50;28.36;98220.69;4973430;28;826;-58
2022/04/01 11:35:30;;;;;;;;;;;;;;;24.42;27.82;98197.91;4973440;28;803;-58
2022/04/01 11:41:01;;;;;;;;;;;;;;;24.18;26.94;98195.22;4973306;28;634;-58
2022/04/01 11:43:28;;;;;;;;;;;;;;;24.07;28.07;98209.47;4973146;28;1918;-60
2022/04/01 11:45:59;;;;;;;;;;;;;;;23.99;27.95;98198.06;4972758;28;878;-58
2022/04/01 11:48:30;;;;;;;;;;;;;;;24.15;28.22;98199.84;4973191;28;831;-58
2022/04/01 11:51:00;;;;;;;;;;;;;;;24.45;28.13;98193.25;4973364;28;863;-58
2022/04/01 11:53:30;;;;;;;;;;;;;;;24.36;28.43;98182.38;4973027;28;820;-58
2022/04/01 11:55:57;;;;;;;;;;;;;;;24.63;26.82;98150.13;4973246;28;946;-58
2022/04/01 11:58:26;;;;;;;;;;;;;;;24.62;27.64;98193.81;4973254;28;884;-58
2022/04/01 12:00:53;;;;;;;;;;;;;;;24.60;26.61;98165.34;4972921;28;953;-58
2022/04/01 12:03:19;;;;;;;;;;;;;;;24.51;27.88;98185.50;4972856;28;1906;-58
2022/04/01 12:09:11;;;;;;;;;;;;;;;24.33;27.81;98189.09;4972982;28;688;-58
2022/04/01 12:11:42;;;;;;;;;;;;;;;24.23;27.87;98194.38;4972853;28;919;-59
2022/04/01 12:14:10;;;;;;;;;;;;;;;24.13;27.70;98168.63;4973251;28;872;-59
2022/04/01 12:16:41;;;;;;;;;;;;;;;24.12;28.07;98181.19;4973005;28;870;-59
2022/04/01 12:31:49;;;;;;;;;;;;;;;23.79;28.59;98162.66;4969930;28;1365;-59
2022/04/01 12:34:18;;;;;;;;;;;;;;;23.72;28.36;98185.81;4972640;28;910;-59
2022/04/01 12:36:51;;;;;;;;;;;;;;;23.83;29.62;98177.22;4972853;28;822;-59
2022/04/01 12:39:17;;;;;;;;;;;;;;;24.01;28.85;98168.00;4972648;28;803;-59
2022/04/01 12:41:53;;;;;;;;;;;;;;;24.11;28.50;98168.38;4972650;28;807;-59
2022/04/01 12:44:22;;;;;;;;;;;;;;;24.05;29.18;98150.78;4972443;28;1985;-58
2022/04/01 12:46:49;;;;;;;;;;;;;;;24.13;28.98;98162.97;4955153;28;2318;-59
2022/04/01 12:49:20;;;;;;;;;;;;;;;24.26;30.20;98170.72;4972596;28;863;-59
2022/04/01 12:51:51;;;;;;;;;;;;;;;24.29;29.32;98174.53;4972575;28;902;-59
2022/04/01 12:54:34;;;;;;;;;;;;;;;24.24;28.38;98170.50;4972538;28;824;-59
2022/04/01 12:57:03;;;;;;;;;;;;;;;23.98;29.12;98163.44;4975255;28;870;-59
2022/04/01 12:59:39;;;;;;;;;;;;;;;23.83;29.39;98163.91;4976224;28;890;-58
2022/04/01 13:02:07;;;;;;;;;;;;;;;23.59;29.04;98119.56;4976506;28;803;-59
2022/04/01 13:07:36;;;;;;;;;;;;;;;23.59;29.34;98136.47;4976188;28;645;-59
2022/04/01 13:10:12;;;;;;;;;;;;;;;23.66;29.32;98123.81;4975968;28;843;-58
2022/04/01 13:12:40;;;;;;;;;;;;;;;23.54;30.58;98142.97;4976072;28;807;-59
2022/04/01 13:15:13;;;;;;;;;;;;;;;23.57;29.98;98130.63;4975903;28;907;-58
2022/04/01 13:17:49;;;;;;;;;;;;;;;23.57;30.54;98096.78;4976169;28;804;-59
2022/04/01 13:20:17;;;;;;;;;;;;;;;23.51;30.11;98096.09;4975922;28;902;-59
2022/04/01 13:22:44;;;;;;;;;;;;;;;23.53;31.00;98109.66;4975769;28;1883;-58
2022/04/01 13:25:14;;;;;;;;;;;;;;;23.78;31.03;98096.28;4976298;28;1035;-59
2022/04/01 13:27:43;;;;;;;;;;;;;;;23.93;29.95;98064.75;4975678;28;914;-59
2022/04/01 13:30:11;;;;;;;;;;;;;;;23.85;30.99;98070.25;4975431;28;1276;-58
2022/04/01 13:32:37;;;;;;;;;;;;;;;23.80;30.51;98080.34;4975530;28;962;-58
2022/04/01 13:35:05;;;;;;;;;;;;;;;23.95;30.73;98073.47;4975733;28;803;-59
2022/04/01 13:37:32;;;;;;;;;;;;;;;23.81;30.80;98066.97;4975539;28;903;-59
2022/04/01 13:39:58;;;;;;;;;;;;;;;23.92;30.16;98066.03;4975531;28;890;-59
2022/04/01 13:42:25;;;;;;;;;;;;;;;23.74;30.35;98067.59;4975616;28;1910;-59
2022/04/01 13:44:52;;;;;;;;;;;;;;;23.50;30.59;98060.75;4975836;28;898;-59
2022/04/01 13:47:20;;;;;;;;;;;;;;;23.42;31.05;98021.13;4975336;28;890;-59
2022/04/01 13:49:47;;;;;;;;;;;;;;;23.43;31.18;98047.28;4957958;28;1566;-58
2022/04/01 13:52:13;;;;;;;;;;;;;;;23.40;31.12;98043.44;4975190;28;895;-59
2022/04/01 13:54:40;;;;;;;;;;;;;;;23.49;31.93;98045.09;4975300;28;800;-59
2022/04/01 13:57:12;;;;;;;;;;;;;;;23.42;31.24;98038.03;4975173;28;939;-59
2022/04/01 13:59:39;;;;;;;;;;;;;;;23.19;31.06;98037.59;4975149;28;866;-60
2022/04/01 14:02:07;;;;;;;;;;;;;;;23.10;31.05;98032.31;4975138;28;894;-60
2022/04/01 14:04:34;;;;;;;;;;;;;;;22.95;32.13;98035.53;4974909;28;1949;-59
2022/04/01 14:07:07;;;;;;;;;;;;;;;22.89;31.96;98020.75;4974588;28;859;-59
2022/04/01 14:09:34;;;;;;;;;;;;;;;22.88;31.93;98055.88;4974864;28;926;-59
2022/04/01 14:12:01;;;;;;;;;;;;;;;22.81;32.97;98045.97;4975266;28;870;-58
2022/04/01 14:14:28;;;;;;;;;;;;;;;22.90;32.59;98033.56;4974857;28;787;-59
2022/04/01 14:32:12;;;;;;;;;;;;;;;22.45;33.38;98025.63;4974471;28;1270;-59